createdAt,value
2023-09-13T00:00:28.930Z,55.92
2023-09-13T00:02:56.238Z,55.93
2023-09-13T00:05:24.332Z,56.16
2023-09-13T00:07:51.644Z,55.97
2023-09-13T00:10:19.970Z,55.99
2023-09-13T00:12:46.797Z,56.28
2023-09-13T00:15:13.839Z,56.12
2023-09-13T00:17:40.679Z,56.42
2023-09-13T00:20:08.806Z,55.98
2023-09-13T00:22:35.665Z,56.05
2023-09-13T00:25:02.554Z,56.27
2023-09-13T00:27:29.209Z,56.40
2023-09-13T00:29:55.922Z,56.25
2023-09-13T00:32:22.532Z,56.17
2023-09-13T00:34:49.402Z,55.96
2023-09-13T00:37:16.255Z,55.91
2023-09-13T00:39:43.221Z,56.03
2023-09-13T00:42:09.995Z,56.12
2023-09-13T00:44:36.948Z,56.19
2023-09-13T00:47:03.906Z,56.18
2023-09-13T00:49:30.918Z,56.19
2023-09-13T00:51:59.014Z,56.01
2023-09-13T00:54:26.701Z,56.11
2023-09-13T00:56:53.722Z,56.08
2023-09-13T00:59:21.083Z,56.23
2023-09-13T01:01:48.044Z,56.29
2023-09-13T01:04:17.921Z,56.17
2023-09-13T01:06:45.079Z,56.19
2023-09-13T01:09:15.088Z,56.12
2023-09-13T01:11:41.964Z,55.92
2023-09-13T01:14:09.314Z,56.11
2023-09-13T01:16:48.247Z,56.02
2023-09-13T01:19:34.041Z,55.99
2023-09-13T01:22:22.271Z,55.86
2023-09-13T01:25:16.577Z,56.12
2023-09-13T01:27:46.450Z,55.86
2023-09-13T01:30:13.734Z,55.86
2023-09-13T01:32:53.361Z,56.08
2023-09-13T01:35:20.434Z,55.94
2023-09-13T01:37:47.801Z,55.95
2023-09-13T01:40:14.723Z,55.80
2023-09-13T01:42:44.832Z,56.12
2023-09-13T01:45:14.847Z,55.82
2023-09-13T01:47:46.263Z,55.91
2023-09-13T01:50:14.845Z,55.61
2023-09-13T01:52:41.970Z,55.46
2023-09-13T01:55:11.806Z,55.96
2023-09-13T01:57:38.633Z,55.63
2023-09-13T02:00:06.575Z,55.99
2023-09-13T02:02:38.630Z,56.19
2023-09-13T02:05:07.362Z,55.85
2023-09-13T02:07:34.644Z,55.95
2023-09-13T02:10:01.703Z,56.25
2023-09-13T02:12:29.194Z,56.06
2023-09-13T02:14:56.259Z,56.16
2023-09-13T02:17:23.682Z,56.15
2023-09-13T02:19:51.364Z,56.20
2023-09-13T02:22:19.975Z,56.16
2023-09-13T02:24:47.170Z,56.07
2023-09-13T02:27:14.110Z,55.74
2023-09-13T02:29:40.903Z,55.85
2023-09-13T02:32:07.706Z,56.12
2023-09-13T02:34:34.608Z,55.65
2023-09-13T02:37:01.531Z,55.98
2023-09-13T02:39:38.367Z,55.92
2023-09-13T02:42:06.713Z,55.91
2023-09-13T02:44:35.420Z,55.78
2023-09-13T02:47:03.865Z,56.06
2023-09-13T02:49:30.744Z,55.87
2023-09-13T02:51:57.578Z,56.04
2023-09-13T02:54:24.454Z,56.15
2023-09-13T02:56:53.986Z,55.88
2023-09-13T02:59:20.722Z,55.76
2023-09-13T03:01:49.332Z,55.84
2023-09-13T03:04:16.865Z,55.97
2023-09-13T03:06:43.623Z,55.72
2023-09-13T03:09:10.551Z,55.74
2023-09-13T03:11:38.003Z,55.86
2023-09-13T03:14:06.136Z,55.80
2023-09-13T03:16:34.673Z,55.95
2023-09-13T03:19:02.414Z,56.10
2023-09-13T03:21:35.432Z,55.72
2023-09-13T03:24:02.123Z,56.00
2023-09-13T03:26:28.968Z,55.55
2023-09-13T03:28:57.601Z,55.63
2023-09-13T03:31:25.741Z,55.72
2023-09-13T03:33:56.050Z,55.84
2023-09-13T03:36:26.293Z,55.80
2023-09-13T03:38:54.663Z,55.93
2023-09-13T03:41:27.552Z,55.90
2023-09-13T03:43:54.599Z,55.82
2023-09-13T03:46:21.915Z,55.78
2023-09-13T03:48:53.734Z,55.54
2023-09-13T03:51:20.497Z,55.73
2023-09-13T03:53:47.801Z,55.53
2023-09-13T03:56:14.970Z,55.69
2023-09-13T03:58:42.242Z,55.53
2023-09-13T04:01:09.255Z,55.43
2023-09-13T04:03:36.333Z,55.45
2023-09-13T04:06:03.785Z,55.40
2023-09-13T04:08:30.622Z,55.19
2023-09-13T04:10:58.268Z,55.46
2023-09-13T04:13:25.320Z,55.33
2023-09-13T04:15:53.166Z,55.72
2023-09-13T04:18:20.260Z,55.33
2023-09-13T04:20:50.647Z,55.48
2023-09-13T04:23:17.990Z,55.65
2023-09-13T04:25:46.050Z,55.27
2023-09-13T04:28:14.476Z,55.89
2023-09-13T04:30:42.957Z,55.45
2023-09-13T04:33:10.739Z,55.46
2023-09-13T04:35:38.120Z,55.82
2023-09-13T04:38:05.137Z,55.69
2023-09-13T04:40:32.197Z,55.47
2023-09-13T04:43:19.168Z,55.54
2023-09-13T04:45:46.054Z,55.40
2023-09-13T04:48:12.879Z,55.70
2023-09-13T04:50:39.752Z,55.67
2023-09-13T04:53:08.240Z,55.72
2023-09-13T04:55:35.168Z,55.88
2023-09-13T04:58:01.931Z,55.72
2023-09-13T05:00:29.268Z,55.90
2023-09-13T05:02:56.035Z,55.95
2023-09-13T05:05:23.246Z,56.14
2023-09-13T05:07:50.125Z,56.34
2023-09-13T05:10:16.980Z,56.51
2023-09-13T05:12:43.697Z,56.47
2023-09-13T05:15:10.665Z,56.76
2023-09-13T05:17:37.374Z,56.85
2023-09-13T05:20:04.617Z,57.15
2023-09-13T05:22:31.403Z,56.85
2023-09-13T05:24:58.247Z,57.02
2023-09-13T05:27:24.896Z,56.86
2023-09-13T05:29:54.780Z,56.73
2023-09-13T05:32:21.392Z,56.98
2023-09-13T05:34:48.324Z,57.04
2023-09-13T05:37:15.255Z,56.71
2023-09-13T05:39:42.169Z,56.96
2023-09-13T05:42:08.916Z,57.00
2023-09-13T05:44:35.750Z,57.19
2023-09-13T05:47:02.390Z,57.24
2023-09-13T05:49:31.003Z,57.46
2023-09-13T05:51:57.913Z,57.41
2023-09-13T05:54:25.197Z,57.37
2023-09-13T05:56:55.694Z,57.48
2023-09-13T05:59:22.515Z,57.11
2023-09-13T06:01:49.564Z,57.44
2023-09-13T06:04:16.460Z,57.06
2023-09-13T06:06:43.418Z,57.81
2023-09-13T06:09:10.115Z,57.18
2023-09-13T06:11:36.796Z,57.43
2023-09-13T06:14:11.338Z,57.28
2023-09-13T06:16:38.772Z,56.75
2023-09-13T06:19:05.801Z,57.04
2023-09-13T06:21:32.686Z,56.44
2023-09-13T06:23:59.656Z,56.69
2023-09-13T06:26:26.557Z,56.70
2023-09-13T06:28:53.554Z,56.64
2023-09-13T06:31:31.771Z,56.28
2023-09-13T06:36:32.589Z,56.61
2023-09-13T06:39:00.531Z,56.44
2023-09-13T06:41:28.392Z,56.24
2023-09-13T06:44:07.519Z,56.08
2023-09-13T06:46:40.615Z,56.12
2023-09-13T06:49:08.558Z,56.43
2023-09-13T06:51:50.508Z,56.46
2023-09-13T06:54:21.338Z,56.08
2023-09-13T06:56:50.887Z,56.60
2023-09-13T06:59:21.760Z,56.66
2023-09-13T07:04:26.528Z,56.63
2023-09-13T07:06:58.723Z,56.69
2023-09-13T07:09:25.817Z,56.35
2023-09-13T07:11:52.802Z,56.25
2023-09-13T07:14:19.838Z,56.30
2023-09-13T07:16:46.788Z,56.59
2023-09-13T07:19:13.716Z,56.19
2023-09-13T07:21:40.611Z,56.33
2023-09-13T07:24:07.797Z,56.07
2023-09-13T07:26:34.637Z,56.12
2023-09-13T07:29:02.305Z,56.04
2023-09-13T07:31:29.515Z,56.65
2023-09-13T07:33:56.398Z,56.66
2023-09-13T07:36:25.245Z,56.52
2023-09-13T07:38:51.947Z,56.23
2023-09-13T07:41:18.709Z,56.45
2023-09-13T07:43:45.400Z,56.70
2023-09-13T07:46:13.286Z,56.39
2023-09-13T07:48:40.094Z,56.63
2023-09-13T07:51:06.902Z,56.68
2023-09-13T07:53:33.688Z,56.28
2023-09-13T07:56:00.857Z,56.30
2023-09-13T07:58:27.853Z,56.29
2023-09-13T08:00:54.864Z,56.29
2023-09-13T08:03:22.161Z,55.77
2023-09-13T08:05:49.325Z,55.76
2023-09-13T08:08:16.961Z,55.97
2023-09-13T08:10:43.877Z,55.61
2023-09-13T08:13:10.811Z,55.90
2023-09-13T08:15:47.289Z,55.37
2023-09-13T08:18:16.003Z,55.71
2023-09-13T08:20:42.760Z,55.60
2023-09-13T08:23:09.806Z,56.23
2023-09-13T08:25:36.922Z,55.70
2023-09-13T08:28:05.241Z,55.51
2023-09-13T08:30:32.059Z,55.67
2023-09-13T08:32:58.925Z,55.75
2023-09-13T08:35:25.687Z,55.43
2023-09-13T08:37:52.735Z,55.55
2023-09-13T08:40:20.064Z,55.89
2023-09-13T08:42:48.128Z,55.61
2023-09-13T08:45:14.762Z,55.87
2023-09-13T08:50:16.299Z,55.56
2023-09-13T08:52:44.999Z,55.95
2023-09-13T08:55:13.272Z,55.75
2023-09-13T08:57:40.779Z,56.02
2023-09-13T09:00:09.522Z,55.69
2023-09-13T09:02:37.548Z,55.83
2023-09-13T09:05:11.720Z,56.06
2023-09-13T09:07:41.229Z,56.10
2023-09-13T09:10:12.666Z,55.65
2023-09-13T09:12:47.289Z,56.12
2023-09-13T09:15:15.797Z,55.93
2023-09-13T09:17:44.296Z,56.08
2023-09-13T09:20:11.546Z,55.87
2023-09-13T09:22:38.615Z,56.14
2023-09-13T09:25:12.031Z,56.09
2023-09-13T09:27:42.217Z,56.19
2023-09-13T09:30:15.935Z,55.99
2023-09-13T09:32:45.109Z,56.16
2023-09-13T09:35:12.054Z,56.05
2023-09-13T09:37:39.053Z,55.97
2023-09-13T09:40:12.543Z,56.14
2023-09-13T09:42:39.424Z,55.98
2023-09-13T09:45:06.999Z,55.85
2023-09-13T09:47:43.769Z,55.86
2023-09-13T09:50:14.776Z,55.91
2023-09-13T09:52:42.670Z,55.97
2023-09-13T09:55:14.976Z,55.81
2023-09-13T09:57:49.092Z,56.04
2023-09-13T10:00:16.972Z,55.88
2023-09-13T10:02:47.808Z,56.24
2023-09-13T10:05:19.560Z,55.95
2023-09-13T10:07:57.990Z,56.02
2023-09-13T10:10:32.171Z,56.20
2023-09-13T10:12:59.060Z,56.29
2023-09-13T10:15:27.344Z,55.88
2023-09-13T10:17:56.978Z,55.97
2023-09-13T10:20:24.955Z,56.07
2023-09-13T10:22:57.569Z,55.93
2023-09-13T10:25:25.461Z,56.33
2023-09-13T10:27:55.662Z,56.54
2023-09-13T10:30:28.775Z,56.50
2023-09-13T10:32:59.458Z,56.12
2023-09-13T10:35:30.421Z,56.34
2023-09-13T10:38:20.823Z,56.22
2023-09-13T10:41:04.338Z,56.18
2023-09-13T10:43:33.231Z,56.31
2023-09-13T10:46:02.360Z,55.90
2023-09-13T10:48:31.004Z,55.84
2023-09-13T10:50:59.294Z,55.98
2023-09-13T10:53:28.091Z,57.38
2023-09-13T10:55:55.899Z,56.46
2023-09-13T10:58:23.970Z,56.66
2023-09-13T11:00:52.727Z,57.22
2023-09-13T11:03:19.893Z,56.51
2023-09-13T11:05:50.106Z,56.89
2023-09-13T11:08:31.398Z,56.66
2023-09-13T11:11:20.351Z,56.41
2023-09-13T11:13:50.629Z,56.19
2023-09-13T11:16:18.479Z,56.21
2023-09-13T11:18:49.980Z,55.81
2023-09-13T11:21:45.638Z,55.77
2023-09-13T11:24:30.039Z,55.90
2023-09-13T11:27:13.670Z,55.57
2023-09-13T11:29:44.477Z,55.47
2023-09-13T11:32:17.764Z,55.24
2023-09-13T11:34:45.245Z,55.33
2023-09-13T11:37:14.009Z,55.28
2023-09-13T11:39:40.988Z,55.27
2023-09-13T11:42:20.943Z,55.52
2023-09-13T11:45:03.201Z,55.62
2023-09-13T11:47:35.105Z,56.21
2023-09-13T11:50:12.675Z,55.86
2023-09-13T11:53:18.112Z,56.04
2023-09-13T11:56:01.838Z,55.81
2023-09-13T11:58:40.915Z,55.25
2023-09-13T12:01:25.644Z,55.17
2023-09-13T12:04:24.016Z,55.18
2023-09-13T12:06:49.770Z,55.15
2023-09-13T12:09:24.913Z,54.95
2023-09-13T12:12:00.767Z,55.06
2023-09-13T12:14:56.205Z,54.84
2023-09-13T12:17:18.566Z,54.83
2023-09-13T12:19:46.803Z,54.94
2023-09-13T12:22:17.410Z,55.03
2023-09-13T12:24:53.740Z,54.72
2023-09-13T12:27:23.679Z,54.89
2023-09-13T12:29:50.511Z,54.84
2023-09-13T12:32:17.531Z,54.47
2023-09-13T12:34:45.190Z,54.70
2023-09-13T12:37:11.969Z,54.67
2023-09-13T12:39:38.755Z,54.29
2023-09-13T12:42:12.085Z,54.28
2023-09-13T12:44:39.891Z,53.84
2023-09-13T12:47:07.484Z,54.05
2023-09-13T12:49:38.589Z,54.04
2023-09-13T12:52:06.476Z,54.06
2023-09-13T12:54:37.547Z,53.76
2023-09-13T12:57:04.679Z,53.69
2023-09-13T12:59:45.433Z,53.58
2023-09-13T13:02:19.451Z,53.70
2023-09-13T13:04:47.514Z,53.73
2023-09-13T13:07:22.568Z,53.69
2023-09-13T13:09:53.260Z,53.75
2023-09-13T13:12:20.374Z,53.67
2023-09-13T13:14:51.672Z,53.68
2023-09-13T13:17:19.144Z,53.74
2023-09-13T13:19:56.349Z,53.76
2023-09-13T13:22:25.767Z,53.58
2023-09-13T13:24:53.486Z,53.51
2023-09-13T13:27:20.882Z,53.52
2023-09-13T13:29:49.271Z,53.62
2023-09-13T13:32:17.008Z,53.81
2023-09-13T13:34:44.948Z,53.55
2023-09-13T13:37:11.974Z,53.47
2023-09-13T13:39:39.453Z,53.39
2023-09-13T13:42:06.602Z,53.26
2023-09-13T13:44:35.767Z,53.29
2023-09-13T13:47:03.409Z,53.54
2023-09-13T13:49:30.253Z,53.33
2023-09-13T13:51:57.202Z,53.10
2023-09-13T13:54:24.664Z,53.90
2023-09-13T13:56:51.414Z,53.29
2023-09-13T13:59:19.171Z,53.27
2023-09-13T14:01:46.510Z,52.83
2023-09-13T14:04:13.440Z,53.03
2023-09-13T14:06:46.189Z,53.49
2023-09-13T14:09:15.927Z,53.01
2023-09-13T14:11:43.385Z,52.68
2023-09-13T14:14:14.314Z,52.53
2023-09-13T14:16:41.754Z,52.56
2023-09-13T14:19:08.832Z,52.80
2023-09-13T14:21:37.056Z,52.69
2023-09-13T14:24:05.825Z,52.38
2023-09-13T14:26:33.040Z,52.42
2023-09-13T14:29:00.567Z,52.90
2023-09-13T14:31:27.443Z,52.68
2023-09-13T14:33:55.013Z,52.80
2023-09-13T14:36:21.843Z,52.43
2023-09-13T14:38:48.529Z,52.65
2023-09-13T14:41:15.225Z,52.19
2023-09-13T14:43:41.821Z,52.31
2023-09-13T14:46:08.928Z,52.57
2023-09-13T14:48:35.912Z,52.68
2023-09-13T14:51:02.786Z,52.55
2023-09-13T14:53:29.697Z,52.63
2023-09-13T14:55:57.703Z,52.13
2023-09-13T14:58:24.966Z,52.42
2023-09-13T15:00:51.948Z,52.65
2023-09-13T15:03:18.995Z,52.41
2023-09-13T15:05:47.038Z,52.64
2023-09-13T15:08:13.823Z,52.54
2023-09-13T15:10:41.047Z,52.30
2023-09-13T15:13:07.731Z,52.25
2023-09-13T15:15:34.622Z,52.23
2023-09-13T15:18:01.573Z,52.28
2023-09-13T15:20:29.094Z,52.48
2023-09-13T15:22:55.865Z,52.33
2023-09-13T15:25:22.589Z,52.51
2023-09-13T15:27:50.026Z,52.54
2023-09-13T15:30:16.905Z,52.53
2023-09-13T15:32:43.915Z,52.42
2023-09-13T15:35:12.936Z,52.66
2023-09-13T15:37:39.532Z,52.64
2023-09-13T15:40:10.324Z,52.55
2023-09-13T15:42:38.601Z,52.08
2023-09-13T15:45:06.897Z,52.33
2023-09-13T15:47:33.713Z,52.46
2023-09-13T15:50:00.484Z,52.57
2023-09-13T15:52:27.215Z,52.16
2023-09-13T15:54:56.926Z,51.60
2023-09-13T15:57:24.739Z,51.89
2023-09-13T15:59:51.869Z,51.89
2023-09-13T16:02:18.875Z,51.91
2023-09-13T16:04:45.619Z,51.78
2023-09-13T16:07:12.590Z,52.04
2023-09-13T16:09:39.726Z,51.98
2023-09-13T16:12:06.819Z,51.69
2023-09-13T16:14:37.168Z,51.61
2023-09-13T16:17:05.246Z,51.66
2023-09-13T16:19:32.702Z,51.74
2023-09-13T16:21:59.427Z,51.41
2023-09-13T16:24:26.753Z,51.60
2023-09-13T16:26:54.916Z,51.30
2023-09-13T16:29:21.726Z,51.43
2023-09-13T16:31:49.781Z,51.52
2023-09-13T16:34:17.282Z,51.83
2023-09-13T16:36:44.111Z,51.84
2023-09-13T16:39:13.161Z,51.98
2023-09-13T16:41:40.120Z,52.03
2023-09-13T16:44:07.506Z,51.79
2023-09-13T16:46:34.270Z,51.74
2023-09-13T16:49:01.163Z,51.80
2023-09-13T16:51:29.428Z,52.07
2023-09-13T16:53:57.533Z,52.26
2023-09-13T16:56:25.076Z,52.20
2023-09-13T16:58:52.017Z,51.93
2023-09-13T17:01:19.112Z,52.36
2023-09-13T17:03:46.867Z,52.15
2023-09-13T17:06:14.937Z,52.50
2023-09-13T17:08:42.758Z,52.35
2023-09-13T17:11:14.324Z,52.42
2023-09-13T17:13:41.927Z,52.18
2023-09-13T17:16:08.898Z,52.23
2023-09-13T17:18:36.582Z,52.38
2023-09-13T17:21:04.714Z,52.24
2023-09-13T17:23:31.687Z,52.66
2023-09-13T17:25:58.881Z,52.60
2023-09-13T17:28:25.805Z,52.53
2023-09-13T17:30:53.735Z,52.37
2023-09-13T17:33:20.801Z,52.54
2023-09-13T17:35:48.827Z,52.26
2023-09-13T17:38:16.825Z,52.06
2023-09-13T17:40:47.422Z,51.97
2023-09-13T17:43:15.036Z,52.30
2023-09-13T17:45:42.453Z,52.76
2023-09-13T17:48:09.554Z,52.77
2023-09-13T17:50:36.304Z,53.00
2023-09-13T17:53:05.403Z,52.73
2023-09-13T17:55:32.685Z,52.57
2023-09-13T17:58:01.322Z,52.92
2023-09-13T18:00:31.118Z,53.07
2023-09-13T18:02:58.120Z,52.86
2023-09-13T18:05:25.165Z,52.76
2023-09-13T18:07:59.178Z,53.16
2023-09-13T18:10:26.776Z,52.72
2023-09-13T18:12:53.558Z,53.29
2023-09-13T18:15:20.791Z,53.14
2023-09-13T18:17:55.364Z,52.96
2023-09-13T18:20:23.997Z,53.21
2023-09-13T18:22:50.875Z,53.39
2023-09-13T18:25:17.680Z,53.14
2023-09-13T18:27:44.871Z,53.59
2023-09-13T18:30:12.730Z,53.31
2023-09-13T18:32:39.348Z,53.31
2023-09-13T18:35:06.851Z,53.11
2023-09-13T18:37:35.113Z,53.08
2023-09-13T18:40:01.984Z,53.12
2023-09-13T18:42:32.821Z,53.23
2023-09-13T18:44:59.896Z,53.55
2023-09-13T18:47:26.739Z,53.50
2023-09-13T18:49:54.244Z,53.14
2023-09-13T18:52:21.030Z,53.45
2023-09-13T18:54:47.834Z,53.59
2023-09-13T18:57:14.816Z,53.51
2023-09-13T18:59:44.059Z,53.46
2023-09-13T19:02:10.865Z,53.54
2023-09-13T19:04:37.989Z,53.37
2023-09-13T19:07:10.150Z,53.71
2023-09-13T19:09:39.837Z,53.77
2023-09-13T19:12:07.604Z,53.79
2023-09-13T19:14:34.498Z,53.87
2023-09-13T19:17:01.315Z,53.63
2023-09-13T19:19:28.021Z,53.85
2023-09-13T19:21:54.707Z,54.09
2023-09-13T19:24:21.763Z,53.60
2023-09-13T19:26:48.620Z,53.67
2023-09-13T19:29:15.828Z,53.84
2023-09-13T19:31:42.862Z,53.74
2023-09-13T19:34:09.665Z,53.56
2023-09-13T19:36:36.807Z,53.64
2023-09-13T19:39:06.958Z,53.65
2023-09-13T19:41:34.454Z,53.41
2023-09-13T19:44:01.328Z,53.32
2023-09-13T19:46:28.186Z,53.92
2023-09-13T19:48:55.077Z,54.10
2023-09-13T19:51:22.833Z,53.79
2023-09-13T19:53:50.020Z,54.12
2023-09-13T19:56:16.903Z,53.88
2023-09-13T19:58:48.019Z,54.18
2023-09-13T20:01:16.102Z,54.00
2023-09-13T20:03:44.283Z,54.15
2023-09-13T20:06:21.979Z,54.06
2023-09-13T20:08:49.327Z,54.38
2023-09-13T20:11:17.249Z,54.26
2023-09-13T20:13:44.360Z,54.21
2023-09-13T20:16:11.381Z,54.16
2023-09-13T20:18:38.287Z,54.12
2023-09-13T20:21:05.799Z,54.22
2023-09-13T20:23:33.286Z,54.46
2023-09-13T20:26:00.573Z,54.46
2023-09-13T20:28:41.113Z,54.13
2023-09-13T20:31:09.040Z,54.64
2023-09-13T20:33:37.270Z,54.65
2023-09-13T20:36:06.255Z,54.20
2023-09-13T20:38:32.950Z,54.72
2023-09-13T20:40:59.770Z,54.18
2023-09-13T20:43:26.429Z,54.34
2023-09-13T20:45:53.623Z,54.51
2023-09-13T20:48:20.489Z,55.07
2023-09-13T20:50:50.940Z,54.57
2023-09-13T20:53:17.791Z,54.32
2023-09-13T20:55:44.729Z,54.40
2023-09-13T20:58:11.584Z,54.83
2023-09-13T21:00:38.756Z,55.16
2023-09-13T21:03:05.786Z,55.13
2023-09-13T21:05:34.312Z,55.72
2023-09-13T21:08:01.038Z,55.08
2023-09-13T21:10:27.827Z,54.76
2023-09-13T21:12:54.451Z,55.06
2023-09-13T21:15:21.377Z,55.74
2023-09-13T21:17:48.276Z,55.48
2023-09-13T21:20:15.384Z,55.32
2023-09-13T21:22:42.204Z,55.06
2023-09-13T21:25:09.288Z,55.08
2023-09-13T21:27:36.111Z,55.13
2023-09-13T21:30:03.013Z,55.02
2023-09-13T21:32:30.093Z,54.76
2023-09-13T21:35:02.480Z,55.19
2023-09-13T21:37:34.206Z,55.25
2023-09-13T21:40:03.233Z,54.92
2023-09-13T21:42:30.268Z,54.84
2023-09-13T21:44:57.304Z,55.01
2023-09-13T21:47:24.726Z,54.82
2023-09-13T21:49:51.870Z,54.84
2023-09-13T21:52:18.489Z,54.73
2023-09-13T21:54:49.671Z,54.57
2023-09-13T21:57:22.590Z,54.47
2023-09-13T21:59:49.649Z,54.81
2023-09-13T22:02:16.386Z,54.56
2023-09-13T22:04:43.474Z,54.91
2023-09-13T22:07:10.579Z,54.66
2023-09-13T22:09:37.711Z,54.60
2023-09-13T22:12:09.921Z,54.93
2023-09-13T22:14:36.850Z,54.55
2023-09-13T22:17:04.139Z,54.61
2023-09-13T22:19:31.033Z,54.49
2023-09-13T22:21:57.697Z,54.93
2023-09-13T22:24:25.663Z,54.84
2023-09-13T22:26:53.407Z,54.93
2023-09-13T22:29:20.359Z,54.79
2023-09-13T22:31:47.982Z,55.03
2023-09-13T22:34:14.902Z,54.81
2023-09-13T22:36:41.565Z,54.96
2023-09-13T22:39:09.606Z,55.00
2023-09-13T22:41:39.046Z,54.98
2023-09-13T22:44:06.619Z,55.08
2023-09-13T22:46:33.659Z,55.00
2023-09-13T22:49:00.611Z,55.25
2023-09-13T22:51:27.477Z,55.23
2023-09-13T22:53:57.142Z,55.12
2023-09-13T22:56:24.261Z,55.28
2023-09-13T22:58:51.134Z,55.23
2023-09-13T23:01:18.082Z,55.21
2023-09-13T23:03:46.623Z,55.63
2023-09-13T23:06:13.869Z,55.11
2023-09-13T23:08:40.992Z,55.14
2023-09-13T23:11:07.835Z,55.42
2023-09-13T23:13:35.302Z,55.61
2023-09-13T23:16:05.158Z,55.37
2023-09-13T23:18:33.082Z,55.51
2023-09-13T23:20:59.891Z,55.24
2023-09-13T23:23:26.638Z,55.27
2023-09-13T23:26:07.060Z,55.23
2023-09-13T23:28:35.131Z,55.24
2023-09-13T23:31:07.775Z,55.40
2023-09-13T23:33:39.743Z,55.70
2023-09-13T23:36:12.087Z,55.63
2023-09-13T23:38:39.913Z,55.74
2023-09-13T23:41:08.248Z,55.54
2023-09-13T23:43:35.541Z,55.71
2023-09-13T23:46:04.841Z,55.36
2023-09-13T23:48:32.874Z,55.26
2023-09-13T23:50:59.560Z,55.29
2023-09-13T23:53:26.419Z,55.36
2023-09-13T23:55:53.235Z,55.78
2023-09-13T23:58:20.176Z,55.27
